Time,TemperatureF,DewpointF,PressureIn,WindDirection,WindDirectionDegrees,WindSpeedMPH,WindSpeedGustMPH,Humidity,HourlyPrecipIn,Conditions,Clouds,dailyrainin,SolarRadiationWatts/m^2,SoftwareType,DateUTC
2013-04-18 00:03:00,79.0,70.0,-100.00,East,101,8.0,17.0,74,0.00,,,0.00,0.000000,,2013-04-18 04:03:00,
2013-04-18 00:13:00,79.0,70.0,-100.00,East,101,8.0,17.0,74,0.00,,,0.00,0.000000,,2013-04-18 04:13:00,
2013-04-18 00:23:00,79.0,70.0,-100.00,East,101,8.0,17.0,74,0.00,,,0.00,0.000000,,2013-04-18 04:23:00,
2013-04-18 00:33:00,79.0,70.0,-100.00,East,101,8.0,17.0,74,0.00,,,0.00,0.000000,,2013-04-18 04:33:00,
2013-04-18 01:02:00,79.0,70.0,-100.00,ESE,104,7.0,15.0,75,0.00,,,0.00,0.000000,,2013-04-18 05:02:00,
2013-04-18 01:12:00,79.0,70.0,-100.00,ESE,104,7.0,15.0,75,0.00,,,0.00,0.000000,,2013-04-18 05:12:00,
2013-04-18 01:22:00,79.0,70.0,-100.00,ESE,104,7.0,15.0,75,0.00,,,0.00,0.000000,,2013-04-18 05:22:00,
2013-04-18 01:33:00,79.0,70.0,-100.00,ESE,104,7.0,15.0,75,0.00,,,0.00,0.000000,,2013-04-18 05:33:00,
2013-04-18 02:02:00,79.0,71.0,-100.00,ESE,105,8.0,15.0,76,0.00,,,0.00,0.000000,,2013-04-18 06:02:00,
2013-04-18 02:12:00,79.0,71.0,-100.00,ESE,105,8.0,15.0,76,0.00,,,0.00,0.000000,,2013-04-18 06:12:00,
2013-04-18 02:22:00,79.0,71.0,-100.00,ESE,105,8.0,15.0,76,0.00,,,0.00,0.000000,,2013-04-18 06:22:00,
2013-04-18 02:32:00,79.0,71.0,-100.00,ESE,105,8.0,15.0,76,0.00,,,0.00,0.000000,,2013-04-18 06:32:00,
2013-04-18 03:02:00,79.0,71.0,-100.00,ESE,104,7.0,15.0,77,0.00,,,0.00,0.000000,,2013-04-18 07:02:00,
2013-04-18 03:12:00,79.0,71.0,-100.00,ESE,104,7.0,15.0,77,0.00,,,0.00,0.000000,,2013-04-18 07:12:00,
2013-04-18 03:22:00,79.0,71.0,-100.00,ESE,104,7.0,15.0,77,0.00,,,0.00,0.000000,,2013-04-18 07:22:00,
2013-04-18 03:32:00,79.0,71.0,-100.00,ESE,104,7.0,15.0,77,0.00,,,0.00,0.000000,,2013-04-18 07:32:00,
2013-04-18 04:02:00,78.0,71.0,-100.00,East,101,6.0,17.0,80,0.00,,,0.00,0.000000,,2013-04-18 08:02:00,
2013-04-18 04:12:00,78.0,71.0,-100.00,East,101,6.0,17.0,80,0.00,,,0.00,0.000000,,2013-04-18 08:12:00,
2013-04-18 04:22:00,78.0,71.0,-100.00,East,101,6.0,17.0,80,0.00,,,0.00,0.000000,,2013-04-18 08:22:00,
2013-04-18 04:32:00,78.0,71.0,-100.00,East,101,6.0,17.0,80,0.00,,,0.00,0.000000,,2013-04-18 08:32:00,
2013-04-18 05:02:00,78.0,72.0,-100.00,ESE,108,8.0,15.0,81,0.00,,,0.00,0.000000,,2013-04-18 09:02:00,
2013-04-18 05:12:00,78.0,72.0,-100.00,ESE,108,8.0,15.0,81,0.00,,,0.00,0.000000,,2013-04-18 09:12:00,
2013-04-18 05:22:00,78.0,72.0,-100.00,ESE,108,8.0,15.0,81,0.00,,,0.00,0.000000,,2013-04-18 09:22:00,
2013-04-18 05:33:00,78.0,72.0,-100.00,ESE,108,8.0,15.0,81,0.00,,,0.00,0.000000,,2013-04-18 09:33:00,
2013-04-18 06:03:00,77.0,72.0,-100.00,East,101,9.0,17.0,84,0.00,,,0.00,0.000000,,2013-04-18 10:03:00,
2013-04-18 06:12:00,77.0,72.0,-100.00,East,101,9.0,17.0,84,0.00,,,0.00,0.000000,,2013-04-18 10:12:00,
2013-04-18 06:23:00,77.0,72.0,-100.00,East,101,9.0,17.0,84,0.00,,,0.00,0.000000,,2013-04-18 10:23:00,
2013-04-18 06:33:00,77.0,72.0,-100.00,East,101,9.0,17.0,84,0.00,,,0.00,0.000000,,2013-04-18 10:33:00,
2013-04-18 07:03:00,77.0,72.0,-100.00,ESE,107,7.0,17.0,84,0.00,,,0.00,0.000000,,2013-04-18 11:03:00,
2013-04-18 07:12:00,77.0,72.0,-100.00,ESE,107,7.0,17.0,84,0.00,,,0.00,0.000000,,2013-04-18 11:12:00,
2013-04-18 07:22:00,77.0,72.0,-100.00,ESE,107,7.0,17.0,84,0.00,,,0.00,0.000000,,2013-04-18 11:22:00,
2013-04-18 07:32:00,77.0,72.0,-100.00,ESE,107,7.0,17.0,84,0.00,,,0.00,0.000000,,2013-04-18 11:32:00,
2013-04-18 08:02:00,78.0,71.0,-100.00,ESE,115,7.0,14.0,79,0.00,,,0.00,16.000000,,2013-04-18 12:02:00,
2013-04-18 08:12:00,78.0,71.0,-100.00,ESE,115,7.0,14.0,79,0.00,,,0.00,16.000000,,2013-04-18 12:12:00,
2013-04-18 08:23:00,78.0,71.0,-100.00,ESE,115,7.0,14.0,79,0.00,,,0.00,16.000000,,2013-04-18 12:23:00,
2013-04-18 08:32:00,78.0,71.0,-100.00,ESE,115,7.0,14.0,79,0.00,,,0.00,16.000000,,2013-04-18 12:32:00,
2013-04-18 09:03:00,81.0,72.0,-100.00,ESE,115,6.0,13.0,75,0.00,,,0.00,147.000000,,2013-04-18 13:03:00,
2013-04-18 09:12:00,81.0,72.0,-100.00,ESE,115,6.0,13.0,75,0.00,,,0.00,147.000000,,2013-04-18 13:12:00,
2013-04-18 09:22:00,81.0,72.0,-100.00,ESE,115,6.0,13.0,75,0.00,,,0.00,147.000000,,2013-04-18 13:22:00,
2013-04-18 09:32:00,81.0,72.0,-100.00,ESE,115,6.0,13.0,75,0.00,,,0.00,147.000000,,2013-04-18 13:32:00,
2013-04-18 10:03:00,84.0,70.0,-100.00,ESE,119,8.0,16.0,64,0.00,,,0.00,362.000000,,2013-04-18 14:03:00,
2013-04-18 10:12:00,84.0,70.0,-100.00,ESE,119,8.0,16.0,64,0.00,,,0.00,362.000000,,2013-04-18 14:12:00,
2013-04-18 10:22:00,84.0,70.0,-100.00,ESE,119,8.0,16.0,64,0.00,,,0.00,362.000000,,2013-04-18 14:22:00,
2013-04-18 10:32:00,84.0,70.0,-100.00,ESE,119,8.0,16.0,64,0.00,,,0.00,362.000000,,2013-04-18 14:32:00,
2013-04-18 11:03:00,86.0,71.0,-100.00,SE,131,9.0,17.0,61,0.00,,,0.00,516.000000,,2013-04-18 15:03:00,
2013-04-18 11:12:00,86.0,71.0,-100.00,SE,131,9.0,17.0,61,0.00,,,0.00,516.000000,,2013-04-18 15:12:00,
2013-04-18 11:22:00,86.0,71.0,-100.00,SE,131,9.0,17.0,61,0.00,,,0.00,516.000000,,2013-04-18 15:22:00,
2013-04-18 11:33:00,86.0,71.0,-100.00,SE,131,9.0,17.0,61,0.00,,,0.00,516.000000,,2013-04-18 15:33:00,
2013-04-18 12:03:00,87.0,70.0,-100.00,SE,136,10.0,19.0,58,0.00,,,0.00,607.000000,,2013-04-18 16:03:00,
2013-04-18 12:13:00,87.0,70.0,-100.00,SE,136,10.0,19.0,58,0.00,,,0.00,607.000000,,2013-04-18 16:13:00,
2013-04-18 12:23:00,87.0,70.0,-100.00,SE,136,10.0,19.0,58,0.00,,,0.00,607.000000,,2013-04-18 16:23:00,
2013-04-18 12:33:00,87.0,70.0,-100.00,SE,136,10.0,19.0,58,0.00,,,0.00,607.000000,,2013-04-18 16:33:00,
2013-04-18 13:03:00,84.0,72.0,-100.00,ESE,113,8.0,20.0,68,0.00,,,0.00,650.000000,,2013-04-18 17:03:00,
2013-04-18 13:13:00,84.0,72.0,-100.00,ESE,113,8.0,20.0,68,0.00,,,0.00,650.000000,,2013-04-18 17:13:00,
2013-04-18 13:22:00,84.0,72.0,-100.00,ESE,113,8.0,20.0,68,0.00,,,0.00,650.000000,,2013-04-18 17:22:00,
2013-04-18 13:33:00,84.0,72.0,-100.00,ESE,113,8.0,20.0,68,0.00,,,0.00,650.000000,,2013-04-18 17:33:00,
2013-04-18 14:03:00,88.0,71.0,-100.00,SE,132,9.0,20.0,57,0.00,,,0.00,866.000000,,2013-04-18 18:03:00,
2013-04-18 14:13:00,88.0,71.0,-100.00,SE,132,9.0,20.0,57,0.00,,,0.00,866.000000,,2013-04-18 18:13:00,
2013-04-18 14:23:00,88.0,71.0,-100.00,SE,132,9.0,20.0,57,0.00,,,0.00,866.000000,,2013-04-18 18:23:00,
2013-04-18 14:32:00,88.0,71.0,-100.00,SE,132,9.0,20.0,57,0.00,,,0.00,866.000000,,2013-04-18 18:32:00,
2013-04-18 15:03:00,87.0,71.0,-100.00,SSE,154,10.0,19.0,59,0.00,,,0.00,878.000000,,2013-04-18 19:03:00,
2013-04-18 15:13:00,87.0,71.0,-100.00,SSE,154,10.0,19.0,59,0.00,,,0.00,878.000000,,2013-04-18 19:13:00,
2013-04-18 15:22:00,87.0,71.0,-100.00,SSE,154,10.0,19.0,59,0.00,,,0.00,878.000000,,2013-04-18 19:22:00,
2013-04-18 15:32:00,87.0,71.0,-100.00,SSE,154,10.0,19.0,59,0.00,,,0.00,878.000000,,2013-04-18 19:32:00,
2013-04-18 16:03:00,88.0,72.0,-100.00,SE,129,8.0,16.0,60,0.00,,,0.00,734.000000,,2013-04-18 20:03:00,
2013-04-18 16:12:00,88.0,72.0,-100.00,SE,129,8.0,16.0,60,0.00,,,0.00,734.000000,,2013-04-18 20:12:00,
2013-04-18 16:22:00,88.0,72.0,-100.00,SE,129,8.0,16.0,60,0.00,,,0.00,734.000000,,2013-04-18 20:22:00,
2013-04-18 16:32:00,88.0,72.0,-100.00,SE,129,8.0,16.0,60,0.00,,,0.00,734.000000,,2013-04-18 20:32:00,
2013-04-18 17:03:00,85.0,72.0,-100.00,ESE,118,8.0,16.0,65,0.00,,,0.00,506.000000,,2013-04-18 21:03:00,
2013-04-18 17:12:00,85.0,72.0,-100.00,ESE,118,8.0,16.0,65,0.00,,,0.00,506.000000,,2013-04-18 21:12:00,
2013-04-18 17:22:00,85.0,72.0,-100.00,ESE,118,8.0,16.0,65,0.00,,,0.00,506.000000,,2013-04-18 21:22:00,
2013-04-18 17:33:00,85.0,72.0,-100.00,ESE,118,8.0,16.0,65,0.00,,,0.00,506.000000,,2013-04-18 21:33:00,
2013-04-18 18:03:00,83.0,71.0,-100.00,ESE,118,8.0,15.0,67,0.00,,,0.00,250.000000,,2013-04-18 22:03:00,
2013-04-18 18:13:00,83.0,71.0,-100.00,ESE,118,8.0,15.0,67,0.00,,,0.00,250.000000,,2013-04-18 22:13:00,
2013-04-18 18:23:00,83.0,71.0,-100.00,ESE,118,8.0,15.0,67,0.00,,,0.00,250.000000,,2013-04-18 22:23:00,
2013-04-18 18:33:00,83.0,71.0,-100.00,ESE,118,8.0,15.0,67,0.00,,,0.00,250.000000,,2013-04-18 22:33:00,
2013-04-18 19:04:00,83.0,71.0,-100.00,SE,131,8.0,17.0,68,0.00,,,0.00,220.000000,,2013-04-18 23:04:00,
2013-04-18 19:12:00,83.0,71.0,-100.00,SE,131,8.0,17.0,68,0.00,,,0.00,220.000000,,2013-04-18 23:12:00,
2013-04-18 19:22:00,83.0,71.0,-100.00,SE,131,8.0,17.0,68,0.00,,,0.00,220.000000,,2013-04-18 23:22:00,
2013-04-18 19:32:00,83.0,71.0,-100.00,SE,131,8.0,17.0,68,0.00,,,0.00,220.000000,,2013-04-18 23:32:00,
2013-04-18 20:01:00,80.0,70.0,-100.00,ESE,122,9.0,19.0,71,0.00,,,0.00,108.000000,,2013-04-19 00:01:00,
2013-04-18 20:12:00,80.0,70.0,-100.00,ESE,122,9.0,19.0,71,0.00,,,0.00,108.000000,,2013-04-19 00:12:00,
2013-04-18 20:22:00,80.0,70.0,-100.00,ESE,122,9.0,19.0,71,0.00,,,0.00,108.000000,,2013-04-19 00:22:00,
2013-04-18 20:32:00,80.0,70.0,-100.00,ESE,122,9.0,19.0,71,0.00,,,0.00,108.000000,,2013-04-19 00:32:00,
2013-04-18 21:01:00,80.0,72.0,-100.00,ESE,123,8.0,17.0,76,0.00,,,0.00,2.000000,,2013-04-19 01:01:00,
2013-04-18 21:11:00,80.0,72.0,-100.00,ESE,123,8.0,17.0,76,0.00,,,0.00,2.000000,,2013-04-19 01:11:00,
2013-04-18 21:21:00,80.0,72.0,-100.00,ESE,123,8.0,17.0,76,0.00,,,0.00,2.000000,,2013-04-19 01:21:00,
2013-04-18 21:32:00,80.0,72.0,-100.00,ESE,123,8.0,17.0,76,0.00,,,0.00,2.000000,,2013-04-19 01:32:00,
2013-04-18 22:02:00,80.0,72.0,-100.00,ESE,119,9.0,17.0,77,0.00,,,0.00,0.000000,,2013-04-19 02:02:00,
2013-04-18 22:11:00,80.0,72.0,-100.00,ESE,119,9.0,17.0,77,0.00,,,0.00,0.000000,,2013-04-19 02:11:00,
2013-04-18 22:21:00,80.0,72.0,-100.00,ESE,119,9.0,17.0,77,0.00,,,0.00,0.000000,,2013-04-19 02:21:00,
2013-04-18 22:32:00,80.0,72.0,-100.00,ESE,119,9.0,17.0,77,0.00,,,0.00,0.000000,,2013-04-19 02:32:00,
2013-04-18 23:01:00,79.0,71.0,-100.00,SE,126,10.0,19.0,76,0.00,,,0.00,0.000000,,2013-04-19 03:01:00,
2013-04-18 23:12:00,79.0,71.0,-100.00,SE,126,10.0,19.0,76,0.00,,,0.00,0.000000,,2013-04-19 03:12:00,
2013-04-18 23:22:00,79.0,71.0,-100.00,SE,126,10.0,19.0,76,0.00,,,0.00,0.000000,,2013-04-19 03:22:00,
2013-04-18 23:33:00,79.0,71.0,-100.00,SE,126,10.0,19.0,76,0.00,,,0.00,0.000000,,2013-04-19 03:33:00,